createdAt,value
2018-05-14T00:01:06.060Z,83.48
2018-05-14T00:06:00.461Z,83.56
2018-05-14T00:08:28.355Z,83.81
2018-05-14T00:10:55.903Z,83.89
2018-05-14T00:13:23.490Z,83.96
2018-05-14T00:15:51.063Z,84.12
2018-05-14T00:18:18.604Z,84.15
2018-05-14T00:20:46.162Z,83.85
2018-05-14T00:23:13.884Z,83.61
2018-05-14T00:25:41.431Z,83.40
2018-05-14T00:28:08.977Z,83.30
2018-05-14T00:30:36.547Z,83.16
2018-05-14T00:33:04.156Z,83.17
2018-05-14T00:35:31.697Z,83.22
2018-05-14T00:37:59.421Z,83.24
2018-05-14T00:40:26.971Z,83.23
2018-05-14T00:42:54.503Z,83.25
2018-05-14T00:45:22.075Z,83.33
2018-05-14T00:47:49.608Z,83.42
2018-05-14T00:52:44.330Z,83.63
2018-05-14T00:55:17.750Z,83.72
2018-05-14T00:57:45.501Z,83.53
2018-05-14T01:00:13.105Z,83.51
2018-05-14T01:02:40.650Z,83.56
2018-05-14T01:05:08.228Z,83.72
2018-05-14T01:07:35.766Z,83.56
2018-05-14T01:10:03.335Z,83.34
2018-05-14T01:12:31.258Z,83.33
2018-05-14T01:14:58.812Z,83.34
2018-05-14T01:17:26.412Z,83.42
2018-05-14T01:19:54.112Z,83.53
2018-05-14T01:22:21.657Z,83.74
2018-05-14T01:24:54.682Z,83.91
2018-05-14T01:27:22.273Z,83.93
2018-05-14T01:29:49.827Z,83.75
2018-05-14T01:32:17.370Z,83.75
2018-05-14T01:34:44.909Z,83.88
2018-05-14T01:37:12.455Z,83.91
2018-05-14T01:39:40.213Z,84.03
2018-05-14T01:42:07.748Z,84.19
2018-05-14T01:44:35.299Z,84.25
2018-05-14T01:47:02.880Z,84.43
2018-05-14T01:49:30.428Z,84.56
2018-05-14T01:51:57.967Z,84.79
2018-05-14T01:54:25.555Z,84.46
2018-05-14T01:56:53.090Z,84.39
2018-05-14T01:59:20.637Z,84.60
2018-05-14T02:01:48.595Z,84.68
2018-05-14T02:04:16.135Z,84.86
2018-05-14T02:06:43.765Z,84.91
2018-05-14T02:09:11.270Z,84.83
2018-05-14T02:11:38.826Z,84.73
2018-05-14T02:14:06.363Z,84.63
2018-05-14T02:16:34.096Z,84.65
2018-05-14T02:19:01.640Z,85.49
2018-05-14T02:21:29.203Z,85.43
2018-05-14T02:23:56.788Z,85.33
2018-05-14T02:26:24.324Z,85.19
2018-05-14T02:28:51.895Z,85.15
2018-05-14T02:31:19.743Z,85.44
2018-05-14T02:33:47.305Z,85.40
2018-05-14T02:36:14.857Z,85.36
2018-05-14T02:38:42.456Z,85.33
2018-05-14T02:41:10.038Z,85.45
2018-05-14T02:43:37.583Z,85.55
2018-05-14T02:46:05.175Z,85.68
2018-05-14T02:48:32.720Z,85.32
2018-05-14T02:51:00.282Z,85.14
2018-05-14T02:53:28.004Z,85.46
2018-05-14T02:55:55.560Z,85.53
2018-05-14T02:58:23.148Z,85.54
2018-05-14T03:00:50.840Z,85.64
2018-05-14T03:03:18.404Z,85.63
2018-05-14T03:05:45.953Z,85.62
2018-05-14T03:08:13.697Z,85.55
2018-05-14T03:10:41.244Z,85.40
2018-05-14T03:13:08.791Z,85.36
2018-05-14T03:15:36.377Z,85.25
2018-05-14T03:18:03.979Z,85.28
2018-05-14T03:20:31.526Z,85.19
2018-05-14T03:22:59.242Z,85.23
2018-05-14T03:25:26.793Z,85.11
2018-05-14T03:27:54.355Z,84.94
2018-05-14T03:30:21.980Z,84.93
2018-05-14T03:32:49.550Z,85.58
2018-05-14T03:35:17.092Z,85.60
2018-05-14T03:37:44.667Z,85.57
2018-05-14T03:40:12.243Z,85.44
2018-05-14T03:42:39.834Z,85.22
2018-05-14T03:45:07.486Z,84.98
2018-05-14T03:47:35.003Z,84.79
2018-05-14T03:50:02.572Z,84.81
2018-05-14T03:52:30.188Z,84.83
2018-05-14T03:54:57.728Z,84.67
2018-05-14T03:57:25.284Z,84.56
2018-05-14T04:00:04.659Z,84.62
2018-05-14T04:02:43.869Z,84.49
2018-05-14T04:05:20.145Z,84.34
2018-05-14T04:07:47.696Z,84.28
2018-05-14T04:10:15.253Z,84.21
2018-05-14T04:12:43.005Z,84.43
2018-05-14T04:15:10.584Z,84.58
2018-05-14T04:17:38.115Z,84.40
2018-05-14T04:20:05.853Z,84.05
2018-05-14T04:22:33.399Z,83.98
2018-05-14T04:25:00.957Z,83.29
2018-05-14T04:27:28.694Z,83.60
2018-05-14T04:29:56.257Z,83.81
2018-05-14T04:32:23.809Z,83.67
2018-05-14T04:34:51.429Z,83.31
2018-05-14T04:37:19.004Z,82.68
2018-05-14T04:39:46.567Z,81.47
2018-05-14T04:42:14.295Z,80.61
2018-05-14T04:44:41.881Z,80.02
2018-05-14T04:47:09.430Z,79.92
2018-05-14T04:49:37.171Z,80.06
2018-05-14T04:52:04.709Z,79.87
2018-05-14T04:54:32.269Z,77.60
2018-05-14T04:56:59.994Z,75.13
2018-05-14T04:59:27.535Z,74.91
2018-05-14T05:01:55.088Z,74.36
2018-05-14T05:04:22.674Z,75.50
2018-05-14T05:06:50.222Z,74.32
2018-05-14T05:09:17.775Z,74.89
2018-05-14T05:11:45.461Z,75.41
2018-05-14T05:14:13.007Z,75.59
2018-05-14T05:16:40.564Z,75.51
2018-05-14T05:19:08.146Z,74.32
2018-05-14T05:21:35.712Z,75.13
2018-05-14T05:24:03.268Z,76.07
2018-05-14T05:26:30.845Z,75.39
2018-05-14T05:28:58.393Z,74.87
2018-05-14T05:31:25.998Z,75.25
2018-05-14T05:33:53.726Z,76.66
2018-05-14T05:36:21.282Z,76.44
2018-05-14T05:38:48.832Z,75.92
2018-05-14T05:41:16.739Z,75.30
2018-05-14T05:43:44.294Z,74.30
2018-05-14T05:46:11.849Z,73.24
2018-05-14T05:48:39.439Z,70.85
2018-05-14T05:51:06.980Z,69.34
2018-05-14T05:53:34.532Z,69.32
2018-05-14T05:56:02.113Z,69.97
2018-05-14T05:58:29.649Z,68.66
2018-05-14T06:00:57.184Z,69.75
2018-05-14T06:03:25.101Z,70.33
2018-05-14T06:05:52.651Z,69.52
2018-05-14T06:08:20.204Z,69.07
2018-05-14T06:10:47.937Z,68.04
2018-05-14T06:13:15.495Z,60.56
2018-05-14T06:15:43.058Z,59.97
2018-05-14T06:18:10.640Z,60.74
2018-05-14T06:20:38.179Z,60.27
2018-05-14T06:23:05.732Z,60.57
2018-05-14T06:25:33.407Z,60.69
2018-05-14T06:28:00.961Z,57.93
2018-05-14T06:30:28.521Z,58.20
2018-05-14T06:32:56.262Z,58.55
2018-05-14T06:35:23.815Z,59.89
2018-05-14T06:37:51.371Z,59.05
2018-05-14T06:40:18.936Z,56.91
2018-05-14T06:42:46.590Z,54.88
2018-05-14T06:45:14.060Z,54.12
2018-05-14T06:47:41.643Z,52.95
2018-05-14T06:50:09.362Z,51.41
2018-05-14T06:52:36.909Z,50.92
2018-05-14T06:55:04.500Z,51.41
2018-05-14T06:57:32.053Z,52.76
2018-05-14T06:59:59.592Z,51.80
2018-05-14T07:02:27.178Z,52.15
2018-05-14T07:04:54.731Z,49.18
2018-05-14T07:07:22.283Z,50.89
2018-05-14T07:09:49.966Z,49.33
2018-05-14T07:12:17.509Z,49.78
2018-05-14T07:14:45.052Z,50.25
2018-05-14T07:17:12.772Z,52.13
2018-05-14T07:19:40.316Z,51.70
2018-05-14T07:22:07.876Z,51.50
2018-05-14T07:24:35.563Z,51.17
2018-05-14T07:27:03.109Z,51.33
2018-05-14T07:29:30.655Z,50.46
2018-05-14T07:31:58.255Z,51.08
2018-05-14T07:34:25.819Z,49.79
2018-05-14T07:36:53.392Z,52.82
2018-05-14T07:39:20.979Z,50.75
2018-05-14T07:41:48.519Z,47.33
2018-05-14T07:44:16.064Z,48.24
2018-05-14T07:46:43.775Z,48.26
2018-05-14T07:49:11.357Z,48.73
2018-05-14T07:51:38.920Z,49.72
2018-05-14T07:54:06.636Z,51.75
2018-05-14T07:56:34.198Z,48.85
2018-05-14T07:59:01.772Z,48.89
2018-05-14T08:01:30.125Z,51.37
2018-05-14T08:03:57.688Z,49.99
2018-05-14T08:06:25.247Z,52.85
2018-05-14T08:08:52.815Z,53.65
2018-05-14T08:11:20.370Z,53.96
2018-05-14T08:13:47.919Z,53.54
2018-05-14T08:16:15.509Z,55.60
2018-05-14T08:18:43.063Z,55.27
2018-05-14T08:21:10.614Z,53.47
2018-05-14T08:23:38.346Z,54.32
2018-05-14T08:26:05.940Z,54.38
2018-05-14T08:28:33.497Z,53.06
2018-05-14T08:31:01.094Z,53.58
2018-05-14T08:33:28.648Z,54.79
2018-05-14T08:35:56.214Z,55.04
2018-05-14T08:38:23.787Z,54.30
2018-05-14T08:40:51.341Z,54.08
2018-05-14T08:43:18.896Z,55.33
2018-05-14T08:45:46.470Z,54.32
2018-05-14T08:48:14.021Z,55.38
2018-05-14T08:50:41.572Z,53.43
2018-05-14T08:53:09.153Z,53.90
2018-05-14T08:55:36.752Z,52.45
2018-05-14T08:58:04.347Z,53.08
2018-05-14T09:00:31.919Z,50.55
2018-05-14T09:02:59.470Z,52.27
2018-05-14T09:05:27.022Z,52.28
2018-05-14T09:07:54.607Z,52.26
2018-05-14T09:10:22.153Z,51.38
2018-05-14T09:12:49.706Z,51.09
2018-05-14T09:15:17.605Z,50.75
2018-05-14T09:17:45.146Z,50.37
2018-05-14T09:20:12.702Z,51.59
2018-05-14T09:22:40.595Z,52.17
2018-05-14T09:25:08.137Z,50.13
2018-05-14T09:27:35.678Z,49.99
2018-05-14T09:30:03.269Z,48.29
2018-05-14T09:32:30.813Z,49.31
2018-05-14T09:34:58.366Z,49.24
2018-05-14T09:37:25.913Z,49.80
2018-05-14T09:39:53.455Z,49.25
2018-05-14T09:42:21.034Z,48.53
2018-05-14T09:44:48.575Z,47.84
2018-05-14T09:47:16.117Z,49.38
2018-05-14T09:49:43.681Z,48.33
2018-05-14T09:52:11.231Z,48.71
2018-05-14T09:54:38.767Z,49.13
2018-05-14T09:57:06.327Z,48.39
2018-05-14T09:59:33.875Z,49.34
2018-05-14T10:02:01.417Z,47.50
2018-05-14T10:04:28.984Z,48.95
2018-05-14T10:06:56.523Z,49.59
2018-05-14T10:09:24.080Z,49.39
2018-05-14T10:11:51.988Z,49.67
2018-05-14T10:14:19.528Z,48.00
2018-05-14T10:16:47.083Z,43.06
2018-05-14T10:19:14.665Z,43.00
2018-05-14T10:21:42.218Z,43.04
2018-05-14T10:24:09.771Z,43.45
2018-05-14T10:26:37.356Z,41.21
2018-05-14T10:29:04.903Z,40.74
2018-05-14T10:31:32.450Z,42.34
2018-05-14T10:34:00.168Z,40.15
2018-05-14T10:36:27.710Z,42.87
2018-05-14T10:38:55.256Z,48.09
2018-05-14T10:41:22.975Z,49.41
2018-05-14T10:43:50.513Z,50.24
2018-05-14T10:46:18.068Z,52.20
2018-05-14T10:48:45.796Z,54.52
2018-05-14T10:51:13.344Z,55.63
2018-05-14T10:53:40.880Z,57.07
2018-05-14T10:56:08.476Z,57.51
2018-05-14T10:58:36.047Z,58.28
2018-05-14T11:01:03.584Z,57.89
2018-05-14T11:03:31.155Z,58.09
2018-05-14T11:05:58.697Z,57.37
2018-05-14T11:08:26.237Z,56.97
2018-05-14T11:10:54.160Z,58.14
2018-05-14T11:13:21.714Z,57.48
2018-05-14T11:15:49.276Z,56.29
2018-05-14T11:18:16.865Z,56.78
2018-05-14T11:20:44.409Z,57.47
2018-05-14T11:23:12.356Z,57.62
2018-05-14T11:25:39.942Z,58.66
2018-05-14T11:28:08.025Z,58.64
2018-05-14T11:30:35.572Z,59.31
2018-05-14T11:33:03.471Z,59.13
2018-05-14T11:35:31.029Z,60.23
2018-05-14T11:37:58.583Z,61.97
2018-05-14T11:40:26.492Z,62.57
2018-05-14T11:42:54.036Z,65.15
2018-05-14T11:45:21.588Z,66.81
2018-05-14T11:47:49.185Z,67.80
2018-05-14T11:50:16.716Z,68.00
2018-05-14T11:52:44.260Z,68.62
2018-05-14T11:55:12.114Z,68.83
2018-05-14T11:57:39.669Z,71.65
2018-05-14T12:00:07.257Z,68.91
2018-05-14T12:02:35.173Z,68.68
2018-05-14T12:05:02.717Z,70.04
2018-05-14T12:07:30.272Z,67.09
2018-05-14T12:09:57.956Z,68.56
2018-05-14T12:12:25.450Z,68.00
2018-05-14T12:14:53.007Z,66.82
2018-05-14T12:17:20.889Z,66.62
2018-05-14T12:19:48.462Z,63.94
2018-05-14T12:22:16.018Z,63.57
2018-05-14T12:24:43.751Z,60.08
2018-05-14T12:27:11.291Z,60.63
2018-05-14T12:29:38.831Z,61.05
2018-05-14T12:32:06.509Z,61.65
2018-05-14T12:34:34.014Z,61.20
2018-05-14T12:37:01.593Z,59.69
2018-05-14T12:39:29.188Z,61.03
2018-05-14T12:41:56.748Z,61.49
2018-05-14T12:44:24.299Z,62.21
2018-05-14T12:46:51.872Z,61.94
2018-05-14T12:49:19.428Z,59.49
2018-05-14T12:51:46.975Z,61.75
2018-05-14T12:54:14.711Z,61.89
2018-05-14T12:56:42.248Z,61.06
2018-05-14T12:59:09.793Z,61.93
2018-05-14T13:01:37.519Z,61.93
2018-05-14T13:04:06.964Z,61.71
2018-05-14T13:06:34.820Z,62.22
2018-05-14T13:09:02.559Z,63.02
2018-05-14T13:11:30.099Z,63.42
2018-05-14T13:13:57.645Z,63.78
2018-05-14T13:16:25.364Z,62.13
2018-05-14T13:18:53.042Z,62.61
2018-05-14T13:21:20.529Z,61.81
2018-05-14T13:23:48.271Z,63.50
2018-05-14T13:26:15.886Z,60.93
2018-05-14T13:28:43.392Z,60.81
2018-05-14T13:31:11.074Z,61.70
2018-05-14T13:33:38.659Z,59.07
2018-05-14T13:36:06.206Z,57.74
2018-05-14T13:38:33.787Z,56.65
2018-05-14T13:41:01.334Z,55.18
2018-05-14T13:43:28.909Z,52.84
2018-05-14T13:45:57.642Z,53.87
2018-05-14T13:48:25.186Z,54.29
2018-05-14T13:50:52.759Z,55.66
2018-05-14T13:53:20.336Z,53.84
2018-05-14T13:55:47.883Z,52.50
2018-05-14T13:58:15.431Z,54.29
2018-05-14T14:00:43.005Z,53.67
2018-05-14T14:03:10.571Z,55.63
2018-05-14T14:05:38.110Z,54.53
2018-05-14T14:08:05.889Z,54.33
2018-05-14T14:10:33.445Z,56.36
2018-05-14T14:13:00.996Z,55.28
2018-05-14T14:15:28.583Z,55.15
2018-05-14T14:17:56.144Z,54.66
2018-05-14T14:20:23.713Z,56.56
2018-05-14T14:22:51.522Z,57.92
2018-05-14T14:25:19.077Z,57.34
2018-05-14T14:27:46.643Z,58.88
2018-05-14T14:30:14.376Z,58.00
2018-05-14T14:32:41.915Z,58.45
2018-05-14T14:35:09.460Z,57.57
2018-05-14T14:37:37.017Z,57.01
2018-05-14T14:40:04.608Z,58.47
2018-05-14T14:42:32.176Z,58.64
2018-05-14T14:44:59.712Z,58.26
2018-05-14T14:47:27.264Z,57.86
2018-05-14T14:49:54.972Z,58.34
2018-05-14T14:52:22.520Z,58.92
2018-05-14T14:54:50.102Z,57.70
2018-05-14T14:57:17.821Z,57.56
2018-05-14T14:59:45.381Z,57.74
2018-05-14T15:02:12.940Z,58.46
2018-05-14T15:04:40.672Z,58.47
2018-05-14T15:07:08.210Z,59.11
2018-05-14T15:09:35.774Z,59.12
2018-05-14T15:12:03.690Z,59.29
2018-05-14T15:14:31.241Z,60.04
2018-05-14T15:16:58.825Z,59.76
2018-05-14T15:19:26.612Z,59.20
2018-05-14T15:21:54.154Z,58.09
2018-05-14T15:24:21.700Z,59.91
2018-05-14T15:26:49.436Z,59.68
2018-05-14T15:29:16.973Z,60.63
2018-05-14T15:31:44.515Z,61.02
2018-05-14T15:34:12.229Z,61.86
2018-05-14T15:36:39.761Z,62.61
2018-05-14T15:39:07.308Z,63.15
2018-05-14T15:41:34.890Z,62.64
2018-05-14T15:44:02.433Z,63.76
2018-05-14T15:46:29.974Z,63.00
2018-05-14T15:48:57.547Z,63.52
2018-05-14T15:51:25.095Z,64.40
2018-05-14T15:53:52.650Z,64.56
2018-05-14T15:56:20.236Z,64.19
2018-05-14T15:58:47.793Z,64.59
2018-05-14T16:01:15.356Z,64.04
2018-05-14T16:03:42.933Z,64.36
2018-05-14T16:06:10.487Z,63.76
2018-05-14T16:08:38.038Z,64.34
2018-05-14T16:11:05.777Z,63.87
2018-05-14T16:13:33.332Z,64.16
2018-05-14T16:16:00.879Z,64.33
2018-05-14T16:18:28.462Z,64.92
2018-05-14T16:20:56.029Z,65.52
2018-05-14T16:23:23.589Z,65.62
2018-05-14T16:25:51.177Z,65.05
2018-05-14T16:28:18.740Z,64.60
2018-05-14T16:30:46.284Z,65.43
2018-05-14T16:33:13.902Z,66.00
2018-05-14T16:35:41.484Z,66.40
2018-05-14T16:38:09.054Z,66.93
2018-05-14T16:40:36.735Z,65.78
2018-05-14T16:43:04.333Z,66.56
2018-05-14T16:45:31.881Z,65.93
2018-05-14T16:47:59.795Z,66.02
2018-05-14T16:50:27.500Z,65.17
2018-05-14T16:52:54.980Z,65.93
2018-05-14T16:55:22.584Z,66.86
2018-05-14T16:57:50.186Z,68.17
2018-05-14T17:00:17.741Z,68.92
2018-05-14T17:02:45.303Z,69.03
2018-05-14T17:05:12.856Z,70.69
2018-05-14T17:07:40.396Z,70.74
2018-05-14T17:10:08.125Z,71.23
2018-05-14T17:12:35.693Z,71.69
2018-05-14T17:15:03.334Z,70.17
2018-05-14T17:17:30.933Z,70.46
2018-05-14T17:19:58.538Z,69.01
2018-05-14T17:22:26.081Z,68.60
2018-05-14T17:24:53.656Z,68.22
2018-05-14T17:27:21.204Z,68.03
2018-05-14T17:29:48.746Z,68.08
2018-05-14T17:32:16.731Z,69.94
2018-05-14T17:34:44.309Z,70.15
2018-05-14T17:37:11.858Z,69.98
2018-05-14T17:39:39.437Z,71.23
2018-05-14T17:42:07.040Z,71.70
2018-05-14T17:44:34.602Z,72.13
2018-05-14T17:47:02.986Z,72.66
2018-05-14T17:49:30.518Z,72.28
2018-05-14T17:51:58.123Z,72.17
2018-05-14T17:54:25.714Z,72.42
2018-05-14T17:56:53.263Z,71.91
2018-05-14T17:59:20.851Z,72.74
2018-05-14T18:01:48.454Z,73.01
2018-05-14T18:04:16.056Z,73.64
2018-05-14T18:06:43.648Z,74.01
2018-05-14T18:09:11.252Z,72.05
2018-05-14T18:11:38.835Z,72.17
2018-05-14T18:14:06.428Z,73.30
2018-05-14T18:16:34.252Z,73.48
2018-05-14T18:19:01.807Z,73.04
2018-05-14T18:21:34.960Z,73.83
2018-05-14T18:24:02.693Z,74.85
2018-05-14T18:26:35.827Z,74.91
2018-05-14T18:29:06.254Z,75.21
2018-05-14T18:31:33.890Z,75.48
2018-05-14T18:34:08.819Z,75.62
2018-05-14T18:36:36.410Z,75.56
2018-05-14T18:39:04.070Z,75.96
2018-05-14T18:41:31.625Z,75.55
2018-05-14T18:43:59.219Z,75.60
2018-05-14T18:46:26.820Z,75.83
2018-05-14T18:48:54.757Z,75.99
2018-05-14T18:51:22.319Z,76.23
2018-05-14T18:53:49.878Z,76.25
2018-05-14T18:56:17.564Z,76.42
2018-05-14T18:58:45.161Z,76.70
2018-05-14T19:01:12.732Z,76.76
2018-05-14T19:03:40.354Z,76.78
2018-05-14T19:06:07.969Z,76.91
2018-05-14T19:08:35.533Z,77.11
2018-05-14T19:11:09.065Z,77.38
2018-05-14T19:13:36.668Z,78.37
2018-05-14T19:16:09.762Z,77.91
2018-05-14T19:18:38.957Z,77.80
2018-05-14T19:21:06.530Z,77.95
2018-05-14T19:23:39.756Z,77.91
2018-05-14T19:26:07.399Z,78.08
2018-05-14T19:28:40.676Z,78.38
2018-05-14T19:31:08.240Z,78.40
2018-05-14T19:33:41.544Z,78.28
2018-05-14T19:36:09.196Z,78.63
2018-05-14T19:38:36.679Z,79.10
2018-05-14T19:41:04.304Z,79.03
2018-05-14T19:43:31.889Z,79.07
2018-05-14T19:46:00.370Z,79.03
2018-05-14T19:48:27.982Z,78.99
2018-05-14T19:50:55.580Z,79.52
2018-05-14T19:53:23.195Z,79.47
2018-05-14T19:55:50.793Z,79.58
2018-05-14T19:58:18.364Z,79.57
2018-05-14T20:00:45.947Z,79.71
2018-05-14T20:03:13.635Z,79.74
2018-05-14T20:05:41.188Z,79.82
2018-05-14T20:08:08.790Z,79.92
2018-05-14T20:10:36.552Z,79.85
2018-05-14T20:13:04.141Z,79.78
2018-05-14T20:15:31.728Z,79.67
2018-05-14T20:17:59.355Z,79.69
2018-05-14T20:20:26.917Z,79.90
2018-05-14T20:22:54.495Z,80.14
2018-05-14T20:25:22.237Z,80.59
2018-05-14T20:27:49.824Z,80.96
2018-05-14T20:30:17.385Z,81.31
2018-05-14T20:32:45.318Z,81.64
2018-05-14T20:35:12.892Z,81.72
2018-05-14T20:37:40.490Z,81.72
2018-05-14T20:40:08.239Z,81.59
2018-05-14T20:42:35.798Z,81.67
2018-05-14T20:45:03.392Z,81.81
2018-05-14T20:47:31.154Z,81.84
2018-05-14T20:49:58.735Z,81.88
2018-05-14T20:52:26.292Z,81.84
2018-05-14T20:54:54.057Z,81.86
2018-05-14T20:57:21.609Z,81.69
2018-05-14T20:59:49.165Z,81.64
2018-05-14T21:02:16.802Z,81.57
2018-05-14T21:04:44.352Z,81.45
2018-05-14T21:07:11.923Z,81.37
2018-05-14T21:09:39.507Z,81.21
2018-05-14T21:12:07.081Z,81.23
2018-05-14T21:14:34.638Z,81.17
2018-05-14T21:17:02.364Z,81.06
2018-05-14T21:19:29.915Z,81.06
2018-05-14T21:21:57.482Z,81.12
2018-05-14T21:24:25.059Z,81.23
2018-05-14T21:26:52.632Z,81.21
2018-05-14T21:29:20.182Z,81.21
2018-05-14T21:31:47.907Z,81.51
2018-05-14T21:34:15.460Z,81.59
2018-05-14T21:36:43.042Z,81.65
2018-05-14T21:39:10.813Z,81.69
2018-05-14T21:41:38.388Z,81.80
2018-05-14T21:44:05.942Z,81.90
2018-05-14T21:46:33.679Z,81.95
2018-05-14T21:49:01.225Z,82.00
2018-05-14T21:51:28.768Z,82.11
2018-05-14T21:53:56.382Z,82.25
2018-05-14T21:56:23.922Z,82.25
2018-05-14T21:58:51.472Z,82.41
2018-05-14T22:01:19.217Z,82.50
2018-05-14T22:03:46.777Z,82.59
2018-05-14T22:06:14.365Z,82.70
2018-05-14T22:08:42.095Z,82.81
2018-05-14T22:11:10.405Z,82.84
2018-05-14T22:13:37.944Z,82.80
2018-05-14T22:16:05.868Z,82.84
2018-05-14T22:18:33.419Z,82.86
2018-05-14T22:21:00.971Z,82.75
2018-05-14T22:23:28.649Z,82.75
2018-05-14T22:25:56.192Z,82.75
2018-05-14T22:28:23.740Z,82.94
2018-05-14T22:30:51.504Z,83.31
2018-05-14T22:35:45.882Z,83.52
2018-05-14T22:38:13.466Z,83.50
2018-05-14T22:40:41.019Z,83.41
2018-05-14T22:43:08.744Z,83.39
2018-05-14T22:45:36.289Z,83.66
2018-05-14T22:48:03.851Z,83.96
2018-05-14T22:50:31.424Z,83.93
2018-05-14T22:52:58.977Z,83.83
2018-05-14T22:55:26.513Z,83.83
2018-05-14T22:57:54.252Z,83.95
2018-05-14T23:00:31.209Z,84.02
2018-05-14T23:02:58.775Z,84.10
2018-05-14T23:05:26.336Z,84.19
2018-05-14T23:07:53.896Z,84.16
2018-05-14T23:10:21.573Z,84.11
2018-05-14T23:12:49.141Z,84.05
2018-05-14T23:15:16.689Z,83.97
2018-05-14T23:17:44.261Z,83.96
2018-05-14T23:20:11.817Z,84.03
2018-05-14T23:22:43.118Z,84.16
2018-05-14T23:25:10.862Z,84.22
2018-05-14T23:27:38.434Z,84.34
2018-05-14T23:30:05.997Z,84.25
2018-05-14T23:32:33.582Z,84.20
2018-05-14T23:35:01.136Z,84.22
2018-05-14T23:37:28.689Z,84.27
2018-05-14T23:39:56.377Z,84.32
2018-05-14T23:42:23.947Z,84.33
2018-05-14T23:44:51.540Z,84.46
2018-05-14T23:47:19.269Z,84.53
2018-05-14T23:49:46.827Z,84.47
2018-05-14T23:52:14.389Z,84.41
2018-05-14T23:54:42.293Z,84.34
2018-05-14T23:57:09.845Z,84.57
2018-05-14T23:59:37.397Z,84.70
